createdAt,value
2017-06-26T00:00:50.302Z,991.88
2017-06-26T00:01:50.326Z,991.92
2017-06-26T00:02:50.361Z,991.87
2017-06-26T00:03:50.388Z,991.89
2017-06-26T00:04:50.420Z,991.92
2017-06-26T00:05:50.449Z,991.9
2017-06-26T00:06:50.477Z,991.89
2017-06-26T00:07:50.508Z,991.87
2017-06-26T00:08:50.540Z,991.92
2017-06-26T00:09:50.564Z,991.88
2017-06-26T00:10:50.592Z,991.85
2017-06-26T00:11:50.627Z,991.86
2017-06-26T00:12:50.657Z,991.86
2017-06-26T00:13:50.680Z,991.88
2017-06-26T00:14:51.016Z,991.9
2017-06-26T00:15:50.747Z,991.88
2017-06-26T00:16:50.774Z,991.88
2017-06-26T00:17:50.803Z,991.83
2017-06-26T00:18:50.835Z,991.89
2017-06-26T00:19:51.117Z,991.88
2017-06-26T00:20:50.893Z,991.93
2017-06-26T00:21:50.923Z,991.91
2017-06-26T00:22:50.955Z,991.92
2017-06-26T00:23:50.982Z,991.93
2017-06-26T00:24:51.264Z,991.91
2017-06-26T00:25:51.042Z,991.92
2017-06-26T00:26:51.074Z,991.91
2017-06-26T00:27:51.100Z,991.89
2017-06-26T00:28:51.128Z,991.91
2017-06-26T00:29:51.412Z,991.92
2017-06-26T00:30:51.191Z,991.9
2017-06-26T00:31:51.217Z,991.86
2017-06-26T00:32:51.251Z,991.87
2017-06-26T00:33:51.275Z,991.9
2017-06-26T00:34:51.609Z,991.9
2017-06-26T00:35:51.333Z,991.89
2017-06-26T00:36:51.370Z,991.86
2017-06-26T00:37:51.399Z,991.88
2017-06-26T00:38:51.429Z,991.82
2017-06-26T00:39:51.457Z,991.78
2017-06-26T00:40:51.487Z,991.8
2017-06-26T00:41:51.517Z,991.79
2017-06-26T00:42:51.543Z,991.81
2017-06-26T00:43:51.577Z,991.74
2017-06-26T00:44:51.604Z,991.76
2017-06-26T00:45:51.634Z,991.75
2017-06-26T00:46:51.663Z,991.74
2017-06-26T00:47:51.695Z,991.76
2017-06-26T00:48:51.724Z,991.73
2017-06-26T00:49:51.753Z,991.78
2017-06-26T00:50:51.778Z,991.7
2017-06-26T00:51:51.810Z,991.72
2017-06-26T00:52:51.834Z,991.72
2017-06-26T00:53:51.876Z,991.69
2017-06-26T00:54:51.900Z,991.66
2017-06-26T00:55:51.931Z,991.7
2017-06-26T00:56:51.962Z,991.67
2017-06-26T00:57:51.986Z,991.68
2017-06-26T00:58:52.018Z,991.64
2017-06-26T00:59:52.046Z,991.65
2017-06-26T01:00:52.077Z,991.68
2017-06-26T01:01:52.107Z,991.68
2017-06-26T01:02:52.140Z,991.67
2017-06-26T01:03:52.168Z,991.68
2017-06-26T01:04:52.197Z,991.72
2017-06-26T01:05:52.223Z,991.73
2017-06-26T01:06:52.259Z,991.72
2017-06-26T01:07:52.287Z,991.7
2017-06-26T01:08:52.316Z,991.76
2017-06-26T01:09:52.345Z,991.73
2017-06-26T01:10:52.370Z,991.71
2017-06-26T01:11:52.407Z,991.71
2017-06-26T01:12:52.436Z,991.69
2017-06-26T01:13:52.463Z,991.7
2017-06-26T01:14:52.494Z,991.69
2017-06-26T01:15:52.518Z,991.66
2017-06-26T01:16:52.552Z,991.68
2017-06-26T01:17:52.580Z,991.69
2017-06-26T01:18:52.613Z,991.7
2017-06-26T01:19:52.641Z,991.71
2017-06-26T01:20:52.670Z,991.69
2017-06-26T01:21:52.701Z,991.64
2017-06-26T01:22:52.732Z,991.66
2017-06-26T01:23:52.757Z,991.68
2017-06-26T01:24:52.790Z,991.73
2017-06-26T01:25:52.818Z,991.7
2017-06-26T01:26:52.844Z,991.69
2017-06-26T01:27:52.879Z,991.71
2017-06-26T01:28:52.910Z,991.68
2017-06-26T01:29:52.937Z,991.69
2017-06-26T01:30:52.966Z,991.68
2017-06-26T01:31:52.990Z,991.67
2017-06-26T01:32:53.023Z,991.68
2017-06-26T01:33:53.059Z,991.69
2017-06-26T01:34:53.081Z,991.66
2017-06-26T01:35:53.115Z,991.66
2017-06-26T01:36:53.140Z,991.73
2017-06-26T01:37:53.168Z,991.7
2017-06-26T01:38:53.206Z,991.7
2017-06-26T01:39:53.229Z,991.69
2017-06-26T01:40:53.262Z,991.71
2017-06-26T01:41:53.291Z,991.71
2017-06-26T01:42:53.320Z,991.64
2017-06-26T01:43:53.353Z,991.65
2017-06-26T01:44:53.382Z,991.64
2017-06-26T01:45:53.406Z,991.61
2017-06-26T01:46:53.435Z,991.64
2017-06-26T01:47:53.468Z,991.67
2017-06-26T01:48:53.497Z,991.63
2017-06-26T01:49:53.521Z,991.63
2017-06-26T01:50:53.555Z,991.62
2017-06-26T01:51:53.587Z,991.64
2017-06-26T01:52:53.616Z,991.6
2017-06-26T01:53:53.645Z,991.65
2017-06-26T01:54:53.676Z,991.63
2017-06-26T01:55:53.703Z,991.62
2017-06-26T01:56:53.735Z,991.61
2017-06-26T01:57:53.764Z,991.62
2017-06-26T01:58:53.794Z,991.69
2017-06-26T01:59:53.827Z,991.61
2017-06-26T02:00:53.850Z,991.61
2017-06-26T02:01:53.884Z,991.59
2017-06-26T02:02:53.908Z,991.58
2017-06-26T02:03:53.941Z,991.57
2017-06-26T02:04:53.975Z,991.62
2017-06-26T02:05:54.004Z,991.58
2017-06-26T02:06:54.033Z,991.62
2017-06-26T02:07:54.065Z,991.57
2017-06-26T02:08:54.087Z,991.6
2017-06-26T02:09:54.118Z,991.57
2017-06-26T02:10:54.152Z,991.53
2017-06-26T02:11:54.185Z,991.52
2017-06-26T02:12:54.209Z,991.49
2017-06-26T02:13:54.229Z,991.47
2017-06-26T02:14:54.259Z,991.47
2017-06-26T02:15:54.299Z,991.46
2017-06-26T02:16:54.324Z,991.47
2017-06-26T02:17:54.358Z,991.46
2017-06-26T02:18:54.381Z,991.49
2017-06-26T02:19:54.414Z,991.46
2017-06-26T02:20:54.443Z,991.44
2017-06-26T02:21:54.476Z,991.48
2017-06-26T02:22:54.505Z,991.48
2017-06-26T02:23:54.534Z,991.5
2017-06-26T02:24:54.563Z,991.49
2017-06-26T02:25:54.591Z,991.51
2017-06-26T02:26:54.617Z,991.52
2017-06-26T02:27:54.649Z,991.55
2017-06-26T02:28:54.678Z,991.51
2017-06-26T02:29:54.711Z,991.55
2017-06-26T02:30:54.740Z,991.55
2017-06-26T02:31:54.765Z,991.57
2017-06-26T02:32:54.798Z,991.54
2017-06-26T02:33:54.830Z,991.52
2017-06-26T02:34:54.858Z,991.51
2017-06-26T02:35:54.887Z,991.54
2017-06-26T02:36:54.916Z,991.52
2017-06-26T02:37:54.945Z,991.51
2017-06-26T02:38:54.977Z,991.53
2017-06-26T02:39:55.007Z,991.52
2017-06-26T02:40:55.036Z,991.55
2017-06-26T02:41:55.061Z,991.52
2017-06-26T02:42:55.093Z,991.54
2017-06-26T02:43:55.123Z,991.55
2017-06-26T02:44:55.151Z,991.55
2017-06-26T02:45:55.185Z,991.57
2017-06-26T02:46:55.215Z,991.58
2017-06-26T02:47:55.242Z,991.54
2017-06-26T02:48:55.274Z,991.56
2017-06-26T02:49:55.300Z,991.52
2017-06-26T02:50:55.329Z,991.53
2017-06-26T02:51:55.361Z,991.54
2017-06-26T02:52:55.386Z,991.55
2017-06-26T02:53:55.418Z,991.51
2017-06-26T02:54:55.444Z,991.51
2017-06-26T02:55:55.476Z,991.53
2017-06-26T02:56:55.509Z,991.52
2017-06-26T02:57:55.538Z,991.51
2017-06-26T02:58:55.566Z,991.5
2017-06-26T02:59:55.594Z,991.49
2017-06-26T03:00:55.625Z,991.52
2017-06-26T03:01:55.652Z,991.51
2017-06-26T03:02:55.685Z,991.47
2017-06-26T03:03:55.713Z,991.47
2017-06-26T03:04:55.743Z,991.5
2017-06-26T03:05:55.772Z,991.47
2017-06-26T03:06:55.801Z,991.5
2017-06-26T03:07:55.830Z,991.46
2017-06-26T03:08:55.862Z,991.45
2017-06-26T03:09:55.891Z,991.44
2017-06-26T03:10:55.919Z,991.45
2017-06-26T03:11:55.949Z,991.46
2017-06-26T03:12:55.973Z,991.49
2017-06-26T03:13:56.007Z,991.5
2017-06-26T03:14:56.035Z,991.49
2017-06-26T03:15:56.321Z,991.49
2017-06-26T03:16:56.096Z,991.49
2017-06-26T03:17:56.123Z,991.49
2017-06-26T03:18:56.151Z,991.52
2017-06-26T03:19:56.183Z,991.46
2017-06-26T03:20:56.464Z,991.46
2017-06-26T03:21:56.244Z,991.43
2017-06-26T03:22:56.274Z,991.42
2017-06-26T03:23:56.303Z,991.4
2017-06-26T03:24:56.332Z,991.43
2017-06-26T03:25:56.608Z,991.46
2017-06-26T03:26:56.391Z,991.42
2017-06-26T03:27:56.419Z,991.41
2017-06-26T03:28:56.450Z,991.45
2017-06-26T03:29:56.480Z,991.44
2017-06-26T03:30:56.505Z,991.44
2017-06-26T03:31:56.537Z,991.45
2017-06-26T03:32:56.570Z,991.45
2017-06-26T03:33:56.599Z,991.48
2017-06-26T03:34:56.627Z,991.44
2017-06-26T03:35:56.655Z,991.44
2017-06-26T03:36:56.683Z,991.46
2017-06-26T03:37:56.716Z,991.43
2017-06-26T03:38:56.744Z,991.46
2017-06-26T03:39:56.775Z,991.45
2017-06-26T03:40:56.804Z,991.44
2017-06-26T03:41:56.829Z,991.47
2017-06-26T03:42:56.865Z,991.47
2017-06-26T03:43:56.891Z,991.46
2017-06-26T03:44:56.919Z,991.47
2017-06-26T03:45:56.953Z,991.48
2017-06-26T03:46:56.980Z,991.47
2017-06-26T03:47:57.010Z,991.47
2017-06-26T03:48:57.056Z,991.46
2017-06-26T03:49:57.087Z,991.5
2017-06-26T03:50:57.116Z,991.48
2017-06-26T03:51:57.141Z,991.49
2017-06-26T03:52:57.157Z,991.5
2017-06-26T03:53:57.205Z,991.48
2017-06-26T03:54:57.216Z,991.52
2017-06-26T03:55:57.240Z,991.54
2017-06-26T03:56:57.278Z,991.56
2017-06-26T03:57:57.305Z,991.56
2017-06-26T03:58:57.333Z,991.56
2017-06-26T03:59:57.363Z,991.56
2017-06-26T04:00:57.392Z,991.6
2017-06-26T04:01:57.421Z,991.54
2017-06-26T04:02:57.450Z,991.58
2017-06-26T04:03:57.478Z,991.55
2017-06-26T04:04:57.507Z,991.56
2017-06-26T04:05:57.541Z,991.57
2017-06-26T04:06:57.568Z,991.58
2017-06-26T04:07:57.599Z,991.54
2017-06-26T04:08:57.630Z,991.57
2017-06-26T04:09:57.655Z,991.59
2017-06-26T04:10:57.689Z,991.57
2017-06-26T04:11:57.718Z,991.6
2017-06-26T04:12:57.745Z,991.64
2017-06-26T04:13:57.769Z,991.56
2017-06-26T04:14:57.804Z,991.6
2017-06-26T04:15:57.832Z,991.59
2017-06-26T04:16:57.861Z,991.55
2017-06-26T04:17:57.891Z,991.54
2017-06-26T04:18:57.923Z,991.55
2017-06-26T04:19:57.952Z,991.58
2017-06-26T04:20:57.980Z,991.57
2017-06-26T04:21:58.304Z,991.56
2017-06-26T04:22:58.038Z,991.59
2017-06-26T04:23:58.072Z,991.53
2017-06-26T04:24:58.101Z,991.54
2017-06-26T04:25:58.125Z,991.55
2017-06-26T04:26:58.409Z,991.57
2017-06-26T04:27:58.187Z,991.61
2017-06-26T04:28:58.215Z,991.58
2017-06-26T04:29:58.244Z,991.55
2017-06-26T04:30:58.277Z,991.58
2017-06-26T04:31:58.605Z,991.59
2017-06-26T04:32:58.334Z,991.53
2017-06-26T04:33:58.362Z,991.55
2017-06-26T04:34:58.392Z,991.52
2017-06-26T04:35:58.419Z,991.51
2017-06-26T04:36:58.449Z,991.54
2017-06-26T04:37:58.483Z,991.58
2017-06-26T04:38:58.512Z,991.56
2017-06-26T04:39:58.541Z,991.62
2017-06-26T04:40:58.568Z,991.66
2017-06-26T04:41:58.594Z,991.64
2017-06-26T04:42:58.627Z,991.62
2017-06-26T04:43:58.656Z,991.61
2017-06-26T04:44:58.683Z,991.59
2017-06-26T04:45:58.713Z,991.6
2017-06-26T04:46:58.742Z,991.6
2017-06-26T04:47:58.775Z,991.55
2017-06-26T04:48:58.799Z,991.55
2017-06-26T04:49:58.833Z,991.59
2017-06-26T04:50:58.862Z,991.55
2017-06-26T04:51:58.895Z,991.54
2017-06-26T04:52:58.924Z,991.58
2017-06-26T04:53:58.951Z,991.54
2017-06-26T04:54:58.981Z,991.54
2017-06-26T04:55:59.006Z,991.54
2017-06-26T04:56:59.038Z,991.51
2017-06-26T04:57:59.068Z,991.53
2017-06-26T04:58:59.097Z,991.52
2017-06-26T04:59:59.129Z,991.58
2017-06-26T05:00:59.155Z,991.52
2017-06-26T05:01:59.186Z,991.55
2017-06-26T05:02:59.215Z,991.53
2017-06-26T05:03:59.242Z,991.56
2017-06-26T05:04:59.268Z,991.53
2017-06-26T05:05:59.306Z,991.52
2017-06-26T05:06:59.330Z,991.49
2017-06-26T05:07:59.363Z,991.46
2017-06-26T05:08:59.389Z,991.47
2017-06-26T05:09:59.421Z,991.5
2017-06-26T05:10:59.450Z,991.49
2017-06-26T05:11:59.483Z,991.46
2017-06-26T05:12:59.507Z,991.5
2017-06-26T05:13:59.536Z,991.49
2017-06-26T05:14:59.568Z,991.51
2017-06-26T05:15:59.597Z,991.51
2017-06-26T05:16:59.622Z,991.51
2017-06-26T05:17:59.652Z,991.5
2017-06-26T05:18:59.688Z,991.53
2017-06-26T05:19:59.720Z,991.58
2017-06-26T05:20:59.742Z,991.52
2017-06-26T05:21:59.774Z,991.59
2017-06-26T05:22:59.803Z,991.57
2017-06-26T05:23:59.832Z,991.57
2017-06-26T05:24:59.861Z,991.6
2017-06-26T05:25:59.889Z,991.56
2017-06-26T05:26:59.920Z,991.59
2017-06-26T05:28:00.203Z,991.6
2017-06-26T05:28:59.980Z,991.6
2017-06-26T05:30:00.005Z,991.59
2017-06-26T05:31:00.039Z,991.62
2017-06-26T05:32:00.068Z,991.59
2017-06-26T05:33:00.393Z,991.59
2017-06-26T05:34:00.129Z,991.61
2017-06-26T05:35:00.157Z,991.64
2017-06-26T05:36:00.183Z,991.64
2017-06-26T05:37:00.214Z,991.62
2017-06-26T05:38:00.491Z,991.62
2017-06-26T05:39:00.273Z,991.63
2017-06-26T05:40:00.301Z,991.64
2017-06-26T05:41:00.335Z,991.64
2017-06-26T05:42:00.358Z,991.65
2017-06-26T05:43:00.643Z,991.63
2017-06-26T05:44:00.420Z,991.6
2017-06-26T05:45:00.449Z,991.65
2017-06-26T05:46:00.478Z,991.64
2017-06-26T05:47:00.507Z,991.62
2017-06-26T05:48:00.536Z,991.63
2017-06-26T05:49:00.564Z,991.61
2017-06-26T05:50:00.597Z,991.63
2017-06-26T05:51:00.617Z,991.61
2017-06-26T05:52:00.655Z,991.6
2017-06-26T05:53:00.679Z,991.62
2017-06-26T05:54:00.713Z,991.61
2017-06-26T05:55:00.738Z,991.63
2017-06-26T05:56:00.774Z,991.61
2017-06-26T05:57:00.827Z,991.61
2017-06-26T05:58:00.832Z,991.59
2017-06-26T05:59:00.861Z,991.59
2017-06-26T06:00:00.888Z,991.59
2017-06-26T06:01:00.917Z,991.63
2017-06-26T06:02:00.943Z,991.63
2017-06-26T06:03:00.981Z,991.61
2017-06-26T06:04:01.006Z,991.62
2017-06-26T06:05:01.033Z,991.57
2017-06-26T06:06:01.066Z,991.6
2017-06-26T06:07:01.096Z,991.65
2017-06-26T06:08:01.120Z,991.59
2017-06-26T06:09:01.149Z,991.63
2017-06-26T06:10:01.186Z,991.61
2017-06-26T06:11:01.215Z,991.6
2017-06-26T06:12:01.244Z,991.63
2017-06-26T06:13:01.269Z,991.59
2017-06-26T06:14:01.301Z,991.63
2017-06-26T06:15:01.330Z,991.61
2017-06-26T06:16:01.359Z,991.58
2017-06-26T06:17:01.391Z,991.59
2017-06-26T06:18:01.420Z,991.6
2017-06-26T06:19:01.445Z,991.58
2017-06-26T06:20:01.474Z,991.55
2017-06-26T06:21:01.507Z,991.55
2017-06-26T06:22:01.535Z,991.54
2017-06-26T06:23:01.564Z,991.55
2017-06-26T06:24:01.598Z,991.52
2017-06-26T06:25:01.624Z,991.54
2017-06-26T06:26:01.650Z,991.57
2017-06-26T06:27:01.681Z,991.58
2017-06-26T06:28:01.706Z,991.55
2017-06-26T06:29:01.747Z,991.57
2017-06-26T06:30:01.770Z,991.51
2017-06-26T06:31:01.803Z,991.49
2017-06-26T06:32:01.828Z,991.43
2017-06-26T06:33:01.856Z,991.44
2017-06-26T06:34:01.889Z,991.44
2017-06-26T06:35:01.918Z,991.45
2017-06-26T06:36:01.947Z,991.44
2017-06-26T06:37:01.976Z,991.51
2017-06-26T06:38:02.008Z,991.49
2017-06-26T06:39:02.033Z,991.55
2017-06-26T06:40:02.066Z,991.52
2017-06-26T06:41:02.091Z,991.52
2017-06-26T06:42:02.123Z,991.51
2017-06-26T06:43:02.156Z,991.52
2017-06-26T06:44:02.185Z,991.49
2017-06-26T06:45:02.211Z,991.48
2017-06-26T06:46:02.243Z,991.48
2017-06-26T06:47:02.276Z,991.49
2017-06-26T06:48:02.304Z,991.45
2017-06-26T06:49:02.333Z,991.43
2017-06-26T06:50:02.362Z,991.46
2017-06-26T06:51:02.391Z,991.46
2017-06-26T06:52:02.417Z,991.48
2017-06-26T06:53:02.449Z,991.49
2017-06-26T06:54:02.479Z,991.49
2017-06-26T06:55:02.511Z,991.53
2017-06-26T06:56:02.539Z,991.49
2017-06-26T06:57:02.568Z,991.5
2017-06-26T06:58:02.597Z,991.51
2017-06-26T06:59:02.881Z,991.51
2017-06-26T07:00:02.654Z,991.52
2017-06-26T07:01:02.685Z,991.55
2017-06-26T07:02:02.715Z,991.5
2017-06-26T07:03:02.744Z,991.52
2017-06-26T07:04:03.025Z,991.51
2017-06-26T07:05:02.797Z,991.5
2017-06-26T07:06:02.834Z,991.52
2017-06-26T07:07:02.861Z,991.47
2017-06-26T07:08:02.892Z,991.43
2017-06-26T07:09:03.220Z,991.42
2017-06-26T07:10:02.951Z,991.39
2017-06-26T07:11:02.979Z,991.37
2017-06-26T07:12:03.011Z,991.35
2017-06-26T07:13:03.040Z,991.32
2017-06-26T07:14:03.369Z,991.36
2017-06-26T07:15:03.098Z,991.29
2017-06-26T07:16:03.126Z,991.3
2017-06-26T07:17:03.151Z,991.29
2017-06-26T07:18:03.185Z,991.24
2017-06-26T07:19:03.517Z,991.29
2017-06-26T07:20:03.246Z,991.34
2017-06-26T07:21:03.275Z,991.35
2017-06-26T07:22:03.304Z,991.33
2017-06-26T07:23:03.327Z,991.37
2017-06-26T07:24:03.616Z,991.33
2017-06-26T07:25:03.394Z,991.35
2017-06-26T07:26:03.423Z,991.33
2017-06-26T07:27:03.446Z,991.34
2017-06-26T07:28:03.477Z,991.3
2017-06-26T07:29:03.509Z,991.35
2017-06-26T07:30:03.546Z,991.32
2017-06-26T07:31:03.568Z,991.3
2017-06-26T07:32:03.600Z,991.35
2017-06-26T07:33:03.629Z,991.37
2017-06-26T07:34:03.657Z,991.34
2017-06-26T07:35:03.690Z,991.37
2017-06-26T07:36:03.717Z,991.39
2017-06-26T07:37:03.749Z,991.37
2017-06-26T07:38:03.781Z,991.39
2017-06-26T07:39:03.805Z,991.39
2017-06-26T07:40:03.831Z,991.42
2017-06-26T07:41:03.867Z,991.38
2017-06-26T07:42:03.895Z,991.43
2017-06-26T07:43:03.924Z,991.38
2017-06-26T07:44:03.954Z,991.38
2017-06-26T07:45:03.979Z,991.39
2017-06-26T07:46:04.012Z,991.37
2017-06-26T07:47:04.045Z,991.39
2017-06-26T07:48:04.072Z,991.37
2017-06-26T07:49:04.104Z,991.33
2017-06-26T07:50:04.130Z,991.3
2017-06-26T07:51:04.153Z,991.31
2017-06-26T07:52:04.192Z,991.34
2017-06-26T07:53:04.221Z,991.3
2017-06-26T07:54:04.249Z,991.34
2017-06-26T07:55:04.277Z,991.3
2017-06-26T07:56:04.307Z,991.3
2017-06-26T07:57:04.341Z,991.33
2017-06-26T07:58:04.372Z,991.31
2017-06-26T07:59:04.399Z,991.26
2017-06-26T08:00:04.427Z,991.29
2017-06-26T08:01:04.460Z,991.32
2017-06-26T08:02:04.488Z,991.28
2017-06-26T08:03:04.517Z,991.26
2017-06-26T08:04:04.546Z,991.25
2017-06-26T08:05:04.571Z,991.21
2017-06-26T08:06:04.604Z,991.27
2017-06-26T08:07:04.637Z,991.21
2017-06-26T08:08:04.663Z,991.24
2017-06-26T08:09:04.690Z,991.22
2017-06-26T08:10:04.723Z,991.21
2017-06-26T08:11:04.752Z,991.21
2017-06-26T08:12:04.781Z,991.22
2017-06-26T08:13:04.813Z,991.22
2017-06-26T08:14:04.842Z,991.19
2017-06-26T08:15:04.867Z,991.17
2017-06-26T08:16:04.899Z,991.19
2017-06-26T08:17:04.933Z,991.16
2017-06-26T08:18:04.957Z,991.15
2017-06-26T08:19:04.985Z,991.15
2017-06-26T08:20:05.020Z,991.16
2017-06-26T08:21:05.052Z,991.11
2017-06-26T08:22:05.081Z,991.17
2017-06-26T08:23:05.112Z,991.15
2017-06-26T08:24:05.139Z,991.17
2017-06-26T08:25:05.165Z,991.2
2017-06-26T08:26:05.200Z,991.28
2017-06-26T08:27:05.230Z,991.29
2017-06-26T08:28:05.257Z,991.3
2017-06-26T08:29:05.288Z,991.29
2017-06-26T08:30:05.320Z,991.32
2017-06-26T08:31:05.348Z,991.31
2017-06-26T08:32:05.377Z,991.33
2017-06-26T08:33:05.405Z,991.34
2017-06-26T08:34:05.434Z,991.31
2017-06-26T08:35:05.463Z,991.32
2017-06-26T08:36:05.497Z,991.34
2017-06-26T08:37:05.524Z,991.35
2017-06-26T08:38:05.553Z,991.31
2017-06-26T08:39:05.582Z,991.28
2017-06-26T08:40:05.616Z,991.24
2017-06-26T08:41:05.640Z,991.23
2017-06-26T08:42:05.674Z,991.25
2017-06-26T08:43:05.699Z,991.2
2017-06-26T08:44:05.732Z,991.19
2017-06-26T08:45:05.763Z,991.17
2017-06-26T08:46:05.792Z,991.22
2017-06-26T08:47:05.821Z,991.19
2017-06-26T08:48:05.847Z,991.19
2017-06-26T08:49:05.879Z,991.23
2017-06-26T08:50:06.212Z,991.25
2017-06-26T08:51:05.943Z,991.3
2017-06-26T08:52:05.974Z,991.27
2017-06-26T08:53:05.999Z,991.29
2017-06-26T08:54:06.028Z,991.3
2017-06-26T08:55:06.311Z,991.28
2017-06-26T08:56:06.089Z,991.28
2017-06-26T08:57:06.118Z,991.3
2017-06-26T08:58:06.143Z,991.27
2017-06-26T08:59:06.180Z,991.27
2017-06-26T09:00:06.506Z,991.27
2017-06-26T09:01:06.238Z,991.24
2017-06-26T09:02:06.262Z,991.27
2017-06-26T09:03:06.298Z,991.22
2017-06-26T09:04:06.328Z,991.22
2017-06-26T09:05:06.604Z,991.23
2017-06-26T09:06:06.385Z,991.26
2017-06-26T09:07:06.415Z,991.26
2017-06-26T09:08:06.447Z,991.25
2017-06-26T09:09:06.476Z,991.23
2017-06-26T09:10:06.503Z,991.28
2017-06-26T09:11:06.533Z,991.25
2017-06-26T09:12:06.559Z,991.3
2017-06-26T09:13:06.590Z,991.3
2017-06-26T09:14:06.623Z,991.29
2017-06-26T09:15:06.652Z,991.3
2017-06-26T09:16:06.681Z,991.21
2017-06-26T09:17:06.713Z,991.25
2017-06-26T09:18:06.742Z,991.26
2017-06-26T09:19:06.768Z,991.26
2017-06-26T09:20:06.800Z,991.17
2017-06-26T09:21:06.829Z,991.22
2017-06-26T09:22:06.858Z,991.25
2017-06-26T09:23:06.890Z,991.24
2017-06-26T09:24:06.918Z,991.23
2017-06-26T09:25:06.953Z,991.19
2017-06-26T09:26:06.982Z,991.18
2017-06-26T09:27:07.011Z,991.19
2017-06-26T09:28:07.039Z,991.17
2017-06-26T09:29:07.071Z,991.19
2017-06-26T09:30:07.100Z,991.2
2017-06-26T09:31:07.127Z,991.21
2017-06-26T09:32:07.157Z,991.17
2017-06-26T09:33:07.186Z,991.19
2017-06-26T09:34:07.215Z,991.17
2017-06-26T09:35:07.250Z,991.15
2017-06-26T09:36:07.277Z,991.16
2017-06-26T09:37:07.307Z,991.16
2017-06-26T09:38:07.341Z,991.13
2017-06-26T09:39:07.368Z,991.14
2017-06-26T09:40:07.393Z,991.13
2017-06-26T09:41:07.429Z,991.15
2017-06-26T09:42:07.459Z,991.12
2017-06-26T09:43:07.486Z,991.13
2017-06-26T09:44:07.517Z,991.1
2017-06-26T09:45:07.549Z,991.06
2017-06-26T09:46:07.576Z,991.07
2017-06-26T09:47:07.606Z,991.08
2017-06-26T09:48:07.632Z,991.08
2017-06-26T09:49:07.664Z,991.07
2017-06-26T09:50:07.696Z,991.1
2017-06-26T09:51:07.725Z,991.09
2017-06-26T09:52:07.754Z,991.14
2017-06-26T09:53:07.787Z,991.09
2017-06-26T09:54:07.815Z,991.09
2017-06-26T09:55:07.841Z,991.03
2017-06-26T09:56:07.878Z,991.07
2017-06-26T09:57:07.904Z,991.04
2017-06-26T09:58:07.931Z,991.05
2017-06-26T09:59:07.964Z,991.07
2017-06-26T10:00:07.996Z,991.03
2017-06-26T10:01:08.026Z,991.01
2017-06-26T10:02:08.058Z,990.99
2017-06-26T10:03:08.087Z,990.96
2017-06-26T10:04:08.115Z,990.97
2017-06-26T10:05:08.144Z,990.94
2017-06-26T10:06:08.173Z,990.96
2017-06-26T10:07:08.204Z,990.88
2017-06-26T10:08:08.235Z,990.98
2017-06-26T10:09:08.260Z,990.97
2017-06-26T10:10:08.293Z,990.94
2017-06-26T10:11:08.326Z,990.87
2017-06-26T10:12:08.354Z,990.9
2017-06-26T10:13:08.383Z,990.87
2017-06-26T10:14:08.415Z,990.82
2017-06-26T10:15:08.442Z,990.8
2017-06-26T10:16:08.474Z,990.8
2017-06-26T10:17:08.506Z,990.76
2017-06-26T10:18:08.535Z,990.8
2017-06-26T10:19:08.563Z,990.79
2017-06-26T10:20:08.596Z,990.76
2017-06-26T10:21:08.874Z,990.74
2017-06-26T10:22:08.655Z,990.71
2017-06-26T10:23:08.684Z,990.69
2017-06-26T10:24:08.717Z,990.72
2017-06-26T10:25:08.742Z,990.7
2017-06-26T10:26:09.074Z,990.72
2017-06-26T10:27:08.806Z,990.71
2017-06-26T10:28:08.834Z,990.74
2017-06-26T10:29:08.863Z,990.7
2017-06-26T10:30:08.896Z,990.73
2017-06-26T10:31:09.178Z,990.71
2017-06-26T10:32:08.954Z,990.73
2017-06-26T10:33:08.981Z,990.69
2017-06-26T10:34:09.011Z,990.68
2017-06-26T10:35:09.045Z,990.69
2017-06-26T10:36:09.373Z,990.63
2017-06-26T10:37:09.103Z,990.66
2017-06-26T10:38:09.136Z,990.55
2017-06-26T10:39:09.164Z,990.53
2017-06-26T10:40:09.197Z,990.54
2017-06-26T10:41:09.472Z,990.53
2017-06-26T10:42:09.251Z,990.52
2017-06-26T10:43:09.283Z,990.57
2017-06-26T10:44:09.316Z,990.54
2017-06-26T10:45:09.345Z,990.53
2017-06-26T10:46:09.625Z,990.53
2017-06-26T10:47:09.404Z,990.57
2017-06-26T10:48:09.436Z,990.57
2017-06-26T10:49:09.464Z,990.57
2017-06-26T10:50:09.497Z,990.55
2017-06-26T10:51:09.526Z,990.51
2017-06-26T10:52:09.550Z,990.51
2017-06-26T10:53:09.587Z,990.51
2017-06-26T10:54:09.616Z,990.47
2017-06-26T10:55:09.645Z,990.39
2017-06-26T10:56:09.678Z,990.4
2017-06-26T10:57:09.707Z,990.39
2017-06-26T10:58:09.736Z,990.34
2017-06-26T10:59:09.768Z,990.33
2017-06-26T11:00:09.796Z,990.3
2017-06-26T11:01:09.823Z,990.3
2017-06-26T11:02:09.861Z,990.36
2017-06-26T11:03:09.890Z,990.35
2017-06-26T11:04:09.918Z,990.36
2017-06-26T11:05:09.950Z,990.42
2017-06-26T11:06:09.979Z,990.42
2017-06-26T11:07:10.008Z,990.38
2017-06-26T11:08:10.039Z,990.31
2017-06-26T11:09:10.066Z,990.25
2017-06-26T11:10:10.094Z,990.24
2017-06-26T11:11:10.130Z,990.23
2017-06-26T11:12:10.159Z,990.23
2017-06-26T11:13:10.182Z,990.25
2017-06-26T11:14:10.220Z,990.23
2017-06-26T11:15:10.246Z,990.23
2017-06-26T11:16:10.277Z,990.23
2017-06-26T11:17:10.311Z,990.19
2017-06-26T11:18:10.336Z,990.19
2017-06-26T11:19:10.367Z,990.16
2017-06-26T11:20:10.401Z,990.16
2017-06-26T11:21:10.426Z,990.14
2017-06-26T11:22:10.460Z,990.16
2017-06-26T11:23:10.491Z,990.12
2017-06-26T11:24:10.521Z,990.11
2017-06-26T11:25:10.554Z,990.15
2017-06-26T11:26:10.582Z,990.16
2017-06-26T11:27:10.615Z,990.15
2017-06-26T11:28:10.639Z,990.16
2017-06-26T11:29:10.676Z,990.12
2017-06-26T11:30:10.706Z,990.1
2017-06-26T11:31:10.734Z,990.1
2017-06-26T11:32:10.763Z,990.16
2017-06-26T11:33:10.797Z,990.16
2017-06-26T11:34:10.824Z,990.14
2017-06-26T11:35:10.858Z,990.09
2017-06-26T11:36:10.895Z,990.13
2017-06-26T11:37:10.916Z,990.19
2017-06-26T11:38:10.949Z,990.18
2017-06-26T11:39:10.975Z,990.15
2017-06-26T11:40:11.010Z,990.14
2017-06-26T11:41:11.039Z,990.11
2017-06-26T11:42:11.071Z,990.08
2017-06-26T11:43:11.101Z,990.06
2017-06-26T11:44:11.132Z,990.04
2017-06-26T11:45:11.161Z,990.06
2017-06-26T11:46:11.190Z,990.06
2017-06-26T11:47:11.226Z,990.07
2017-06-26T11:48:11.256Z,990.14
2017-06-26T11:49:11.290Z,990.11
2017-06-26T11:50:11.324Z,990.1
2017-06-26T11:51:11.354Z,990.06
2017-06-26T11:52:11.383Z,990.08
2017-06-26T11:53:11.418Z,990.04
2017-06-26T11:54:11.452Z,990.06
2017-06-26T11:55:11.485Z,989.99
2017-06-26T11:56:11.515Z,990.09
2017-06-26T11:57:11.547Z,990.1
2017-06-26T11:58:11.580Z,990.06
2017-06-26T11:59:11.612Z,990.02
2017-06-26T12:00:11.646Z,990
2017-06-26T12:01:11.685Z,990.01
2017-06-26T12:02:11.715Z,989.99
2017-06-26T12:03:11.749Z,989.99
2017-06-26T12:04:11.779Z,990.05
2017-06-26T12:05:11.815Z,990.05
2017-06-26T12:06:11.846Z,989.99
2017-06-26T12:07:11.880Z,990.02
2017-06-26T12:08:11.917Z,989.97
2017-06-26T12:09:11.953Z,989.92
2017-06-26T12:10:11.982Z,989.89
2017-06-26T12:11:12.019Z,989.89
2017-06-26T12:12:12.051Z,989.89
2017-06-26T12:13:12.081Z,989.89
2017-06-26T12:14:12.122Z,989.87
2017-06-26T12:15:12.155Z,989.86
2017-06-26T12:16:12.187Z,989.82
2017-06-26T12:17:12.219Z,989.85
2017-06-26T12:18:12.257Z,989.82
2017-06-26T12:19:12.292Z,989.8
2017-06-26T12:20:12.328Z,989.84
2017-06-26T12:21:12.364Z,989.82
2017-06-26T12:22:12.396Z,989.83
2017-06-26T12:23:12.432Z,989.8
2017-06-26T12:24:12.466Z,989.82
2017-06-26T12:25:12.503Z,989.83
2017-06-26T12:26:12.531Z,989.83
2017-06-26T12:27:12.572Z,989.83
2017-06-26T12:28:12.603Z,989.85
2017-06-26T12:29:12.640Z,989.86
2017-06-26T12:30:12.674Z,989.84
2017-06-26T12:31:12.716Z,989.84
2017-06-26T12:32:12.748Z,989.83